sensor_id;sensor_type;location;lat;lon;timestamp;P1;durP1;ratioP1;P2;durP2;ratioP2
44270;SDS011;29963;44.594;11.368;2022-10-14T00:00:37;15.60;;;12.93;;
44270;SDS011;29963;44.594;11.368;2022-10-14T00:03:03;15.18;;;12.68;;
44270;SDS011;29963;44.594;11.368;2022-10-14T00:05:28;14.77;;;12.88;;
44270;SDS011;29963;44.594;11.368;2022-10-14T00:07:54;20.48;;;14.02;;
44270;SDS011;29963;44.594;11.368;2022-10-14T00:10:20;15.00;;;13.38;;
44270;SDS011;29963;44.594;11.368;2022-10-14T00:12:48;21.75;;;12.90;;
44270;SDS011;29963;44.594;11.368;2022-10-14T00:15:14;16.25;;;13.02;;
44270;SDS011;29963;44.594;11.368;2022-10-14T00:17:40;15.73;;;13.23;;
44270;SDS011;29963;44.594;11.368;2022-10-14T00:20:06;16.00;;;13.18;;
44270;SDS011;29963;44.594;11.368;2022-10-14T00:22:35;18.88;;;12.73;;
44270;SDS011;29963;44.594;11.368;2022-10-14T00:25:01;15.05;;;13.02;;
44270;SDS011;29963;44.594;11.368;2022-10-14T00:27:26;21.65;;;12.93;;
44270;SDS011;29963;44.594;11.368;2022-10-14T00:29:52;17.77;;;15.15;;
44270;SDS011;29963;44.594;11.368;2022-10-14T00:32:18;18.23;;;13.88;;
44270;SDS011;29963;44.594;11.368;2022-10-14T00:34:43;17.05;;;14.60;;
44270;SDS011;29963;44.594;11.368;2022-10-14T00:37:09;18.20;;;14.27;;
44270;SDS011;29963;44.594;11.368;2022-10-14T00:39:34;16.48;;;14.40;;
44270;SDS011;29963;44.594;11.368;2022-10-14T00:42:00;15.55;;;13.88;;
44270;SDS011;29963;44.594;11.368;2022-10-14T00:46:52;17.42;;;14.18;;
44270;SDS011;29963;44.594;11.368;2022-10-14T00:49:28;14.98;;;13.40;;
44270;SDS011;29963;44.594;11.368;2022-10-14T00:52:01;18.10;;;13.20;;
44270;SDS011;29963;44.594;11.368;2022-10-14T00:54:33;16.30;;;14.45;;
44270;SDS011;29963;44.594;11.368;2022-10-14T00:57:08;16.77;;;14.40;;
44270;SDS011;29963;44.594;11.368;2022-10-14T00:59:34;16.17;;;13.98;;
44270;SDS011;29963;44.594;11.368;2022-10-14T01:02:00;17.33;;;13.65;;
44270;SDS011;29963;44.594;11.368;2022-10-14T01:04:26;18.27;;;12.80;;
44270;SDS011;29963;44.594;11.368;2022-10-14T01:10:06;20.20;;;15.27;;
44270;SDS011;29963;44.594;11.368;2022-10-14T01:24:00;22.30;;;15.18;;
44270;SDS011;29963;44.594;11.368;2022-10-14T01:32:05;17.25;;;14.18;;
44270;SDS011;29963;44.594;11.368;2022-10-14T01:34:41;19.55;;;14.57;;
44270;SDS011;29963;44.594;11.368;2022-10-14T01:37:17;15.90;;;14.27;;
44270;SDS011;29963;44.594;11.368;2022-10-14T01:39:49;22.63;;;15.93;;
44270;SDS011;29963;44.594;11.368;2022-10-14T01:42:24;15.65;;;13.50;;
44270;SDS011;29963;44.594;11.368;2022-10-14T01:44:54;20.02;;;16.00;;
44270;SDS011;29963;44.594;11.368;2022-10-14T01:47:25;20.08;;;14.73;;
44270;SDS011;29963;44.594;11.368;2022-10-14T01:49:58;22.02;;;15.35;;
44270;SDS011;29963;44.594;11.368;2022-10-14T01:52:33;18.08;;;14.82;;
44270;SDS011;29963;44.594;11.368;2022-10-14T01:55:07;20.08;;;15.25;;
44270;SDS011;29963;44.594;11.368;2022-10-14T01:57:38;17.45;;;15.43;;
44270;SDS011;29963;44.594;11.368;2022-10-14T02:00:05;18.02;;;14.85;;
44270;SDS011;29963;44.594;11.368;2022-10-14T02:02:34;22.27;;;15.70;;
44270;SDS011;29963;44.594;11.368;2022-10-14T02:05:02;17.73;;;14.88;;
44270;SDS011;29963;44.594;11.368;2022-10-14T02:07:38;17.35;;;14.60;;
44270;SDS011;29963;44.594;11.368;2022-10-14T02:16:01;17.88;;;15.23;;
44270;SDS011;29963;44.594;11.368;2022-10-14T02:21:17;20.27;;;14.55;;
44270;SDS011;29963;44.594;11.368;2022-10-14T02:23:58;16.58;;;14.80;;
44270;SDS011;29963;44.594;11.368;2022-10-14T02:26:34;17.75;;;14.13;;
44270;SDS011;29963;44.594;11.368;2022-10-14T02:29:01;16.65;;;14.45;;
44270;SDS011;29963;44.594;11.368;2022-10-14T02:31:29;17.40;;;14.90;;
44270;SDS011;29963;44.594;11.368;2022-10-14T02:33:57;21.38;;;15.05;;
44270;SDS011;29963;44.594;11.368;2022-10-14T02:36:27;16.92;;;15.20;;
44270;SDS011;29963;44.594;11.368;2022-10-14T02:38:55;18.58;;;15.27;;
44270;SDS011;29963;44.594;11.368;2022-10-14T02:41:24;15.23;;;13.63;;
44270;SDS011;29963;44.594;11.368;2022-10-14T02:43:54;15.77;;;13.52;;
44270;SDS011;29963;44.594;11.368;2022-10-14T02:46:20;20.15;;;14.52;;
44270;SDS011;29963;44.594;11.368;2022-10-14T02:48:47;18.90;;;14.60;;
44270;SDS011;29963;44.594;11.368;2022-10-14T02:51:15;16.13;;;13.68;;
44270;SDS011;29963;44.594;11.368;2022-10-14T02:53:41;23.60;;;15.32;;
44270;SDS011;29963;44.594;11.368;2022-10-14T02:56:07;17.70;;;13.88;;
44270;SDS011;29963;44.594;11.368;2022-10-14T02:58:37;15.82;;;14.15;;
44270;SDS011;29963;44.594;11.368;2022-10-14T03:01:06;15.30;;;13.70;;
44270;SDS011;29963;44.594;11.368;2022-10-14T03:03:32;17.58;;;14.77;;
44270;SDS011;29963;44.594;11.368;2022-10-14T03:05:57;17.65;;;14.60;;
44270;SDS011;29963;44.594;11.368;2022-10-14T03:08:23;18.50;;;14.43;;
44270;SDS011;29963;44.594;11.368;2022-10-14T03:10:49;16.73;;;13.13;;
44270;SDS011;29963;44.594;11.368;2022-10-14T03:13:14;21.98;;;14.65;;
44270;SDS011;29963;44.594;11.368;2022-10-14T03:15:40;16.10;;;14.35;;
44270;SDS011;29963;44.594;11.368;2022-10-14T03:18:06;18.08;;;14.90;;
44270;SDS011;29963;44.594;11.368;2022-10-14T03:20:32;16.35;;;14.52;;
44270;SDS011;29963;44.594;11.368;2022-10-14T03:22:57;20.88;;;15.85;;
44270;SDS011;29963;44.594;11.368;2022-10-14T03:25:23;19.58;;;15.75;;
44270;SDS011;29963;44.594;11.368;2022-10-14T03:27:49;15.85;;;14.20;;
44270;SDS011;29963;44.594;11.368;2022-10-14T03:30:15;21.58;;;15.43;;
44270;SDS011;29963;44.594;11.368;2022-10-14T03:32:40;17.08;;;13.93;;
44270;SDS011;29963;44.594;11.368;2022-10-14T03:35:06;19.42;;;14.90;;
44270;SDS011;29963;44.594;11.368;2022-10-14T03:37:32;16.73;;;15.13;;
44270;SDS011;29963;44.594;11.368;2022-10-14T03:39:58;17.35;;;14.63;;
44270;SDS011;29963;44.594;11.368;2022-10-14T03:42:24;19.50;;;15.68;;
44270;SDS011;29963;44.594;11.368;2022-10-14T03:44:49;18.13;;;14.75;;
44270;SDS011;29963;44.594;11.368;2022-10-14T03:47:15;20.20;;;17.30;;
44270;SDS011;29963;44.594;11.368;2022-10-14T03:49:41;20.55;;;16.17;;
44270;SDS011;29963;44.594;11.368;2022-10-14T03:52:06;17.45;;;15.65;;
44270;SDS011;29963;44.594;11.368;2022-10-14T03:54:32;18.60;;;15.35;;
44270;SDS011;29963;44.594;11.368;2022-10-14T03:56:58;21.05;;;15.38;;
44270;SDS011;29963;44.594;11.368;2022-10-14T03:59:23;24.25;;;15.15;;
44270;SDS011;29963;44.594;11.368;2022-10-14T04:01:49;21.83;;;15.32;;
44270;SDS011;29963;44.594;11.368;2022-10-14T04:04:14;20.15;;;15.98;;
44270;SDS011;29963;44.594;11.368;2022-10-14T04:06:40;21.70;;;15.05;;
44270;SDS011;29963;44.594;11.368;2022-10-14T04:09:06;20.85;;;15.50;;
44270;SDS011;29963;44.594;11.368;2022-10-14T04:11:31;16.65;;;14.93;;
44270;SDS011;29963;44.594;11.368;2022-10-14T04:13:58;20.63;;;15.05;;
44270;SDS011;29963;44.594;11.368;2022-10-14T04:16:24;17.92;;;14.88;;
44270;SDS011;29963;44.594;11.368;2022-10-14T04:18:51;20.15;;;15.77;;
44270;SDS011;29963;44.594;11.368;2022-10-14T04:21:17;20.58;;;15.57;;
44270;SDS011;29963;44.594;11.368;2022-10-14T04:23:43;19.98;;;15.65;;
44270;SDS011;29963;44.594;11.368;2022-10-14T04:26:09;21.73;;;15.95;;
44270;SDS011;29963;44.594;11.368;2022-10-14T04:28:35;17.42;;;15.57;;
44270;SDS011;29963;44.594;11.368;2022-10-14T04:31:01;17.48;;;14.23;;
44270;SDS011;29963;44.594;11.368;2022-10-14T04:33:27;20.83;;;17.40;;
44270;SDS011;29963;44.594;11.368;2022-10-14T04:35:59;20.80;;;17.10;;
44270;SDS011;29963;44.594;11.368;2022-10-14T04:38:27;20.33;;;15.82;;
44270;SDS011;29963;44.594;11.368;2022-10-14T04:40:53;19.65;;;15.23;;
44270;SDS011;29963;44.594;11.368;2022-10-14T04:43:20;21.00;;;15.35;;
44270;SDS011;29963;44.594;11.368;2022-10-14T04:45:49;21.48;;;16.20;;
44270;SDS011;29963;44.594;11.368;2022-10-14T04:48:15;18.42;;;15.48;;
44270;SDS011;29963;44.594;11.368;2022-10-14T04:50:41;20.58;;;16.35;;
44270;SDS011;29963;44.594;11.368;2022-10-14T04:53:07;19.90;;;15.82;;
44270;SDS011;29963;44.594;11.368;2022-10-14T04:55:33;15.93;;;14.35;;
44270;SDS011;29963;44.594;11.368;2022-10-14T04:57:59;18.55;;;15.90;;
44270;SDS011;29963;44.594;11.368;2022-10-14T05:00:24;18.50;;;15.25;;
44270;SDS011;29963;44.594;11.368;2022-10-14T05:02:50;16.10;;;14.25;;
44270;SDS011;29963;44.594;11.368;2022-10-14T05:05:16;23.55;;;15.55;;
44270;SDS011;29963;44.594;11.368;2022-10-14T05:07:41;18.80;;;15.00;;
44270;SDS011;29963;44.594;11.368;2022-10-14T05:10:07;19.05;;;15.18;;
44270;SDS011;29963;44.594;11.368;2022-10-14T05:12:37;19.10;;;15.05;;
44270;SDS011;29963;44.594;11.368;2022-10-14T05:15:04;18.98;;;15.68;;
44270;SDS011;29963;44.594;11.368;2022-10-14T05:17:31;17.77;;;14.70;;
44270;SDS011;29963;44.594;11.368;2022-10-14T05:19:57;16.67;;;14.98;;
44270;SDS011;29963;44.594;11.368;2022-10-14T05:22:23;18.60;;;14.40;;
44270;SDS011;29963;44.594;11.368;2022-10-14T05:24:49;17.98;;;15.07;;
44270;SDS011;29963;44.594;11.368;2022-10-14T05:27:15;17.70;;;14.75;;
44270;SDS011;29963;44.594;11.368;2022-10-14T05:29:41;20.58;;;15.35;;
44270;SDS011;29963;44.594;11.368;2022-10-14T05:32:07;18.92;;;15.68;;
44270;SDS011;29963;44.594;11.368;2022-10-14T05:34:32;17.08;;;15.27;;
44270;SDS011;29963;44.594;11.368;2022-10-14T05:36:59;20.80;;;14.65;;
44270;SDS011;29963;44.594;11.368;2022-10-14T05:39:25;20.98;;;15.05;;
44270;SDS011;29963;44.594;11.368;2022-10-14T05:41:51;20.58;;;15.23;;
44270;SDS011;29963;44.594;11.368;2022-10-14T05:44:16;20.70;;;15.73;;
44270;SDS011;29963;44.594;11.368;2022-10-14T05:46:42;17.42;;;14.65;;
44270;SDS011;29963;44.594;11.368;2022-10-14T05:49:09;20.08;;;14.57;;
44270;SDS011;29963;44.594;11.368;2022-10-14T05:51:35;22.50;;;14.45;;
44270;SDS011;29963;44.594;11.368;2022-10-14T05:54:01;19.50;;;14.27;;
44270;SDS011;29963;44.594;11.368;2022-10-14T05:56:26;16.77;;;14.98;;
44270;SDS011;29963;44.594;11.368;2022-10-14T05:58:52;17.80;;;14.23;;
44270;SDS011;29963;44.594;11.368;2022-10-14T06:01:17;21.25;;;15.13;;
44270;SDS011;29963;44.594;11.368;2022-10-14T06:03:43;23.00;;;15.43;;
44270;SDS011;29963;44.594;11.368;2022-10-14T06:06:12;22.17;;;15.43;;
44270;SDS011;29963;44.594;11.368;2022-10-14T06:08:38;16.00;;;14.05;;
44270;SDS011;29963;44.594;11.368;2022-10-14T06:11:05;17.60;;;14.90;;
44270;SDS011;29963;44.594;11.368;2022-10-14T06:13:32;17.27;;;14.43;;
44270;SDS011;29963;44.594;11.368;2022-10-14T06:16:02;19.27;;;15.18;;
44270;SDS011;29963;44.594;11.368;2022-10-14T06:18:29;19.00;;;14.32;;
44270;SDS011;29963;44.594;11.368;2022-10-14T06:20:55;19.85;;;15.35;;
44270;SDS011;29963;44.594;11.368;2022-10-14T06:23:20;19.67;;;15.48;;
44270;SDS011;29963;44.594;11.368;2022-10-14T06:25:49;18.98;;;14.48;;
44270;SDS011;29963;44.594;11.368;2022-10-14T06:28:15;20.02;;;15.52;;
44270;SDS011;29963;44.594;11.368;2022-10-14T06:30:40;16.90;;;15.20;;
44270;SDS011;29963;44.594;11.368;2022-10-14T06:33:06;23.23;;;17.25;;
44270;SDS011;29963;44.594;11.368;2022-10-14T06:35:32;19.58;;;17.52;;
44270;SDS011;29963;44.594;11.368;2022-10-14T06:37:57;20.77;;;14.73;;
44270;SDS011;29963;44.594;11.368;2022-10-14T06:40:23;16.58;;;14.68;;
44270;SDS011;29963;44.594;11.368;2022-10-14T06:42:49;24.73;;;15.65;;
44270;SDS011;29963;44.594;11.368;2022-10-14T06:45:14;23.55;;;16.50;;
44270;SDS011;29963;44.594;11.368;2022-10-14T06:47:40;23.25;;;14.43;;
44270;SDS011;29963;44.594;11.368;2022-10-14T06:50:06;15.57;;;13.27;;
44270;SDS011;29963;44.594;11.368;2022-10-14T06:52:32;23.48;;;14.45;;
44270;SDS011;29963;44.594;11.368;2022-10-14T06:54:57;16.70;;;13.90;;
44270;SDS011;29963;44.594;11.368;2022-10-14T06:57:23;20.23;;;15.23;;
44270;SDS011;29963;44.594;11.368;2022-10-14T06:59:49;19.92;;;15.43;;
44270;SDS011;29963;44.594;11.368;2022-10-14T07:02:15;17.50;;;14.10;;
44270;SDS011;29963;44.594;11.368;2022-10-14T07:04:40;19.73;;;15.30;;
44270;SDS011;29963;44.594;11.368;2022-10-14T07:07:06;19.92;;;14.75;;
44270;SDS011;29963;44.594;11.368;2022-10-14T07:09:32;14.55;;;12.93;;
44270;SDS011;29963;44.594;11.368;2022-10-14T07:11:58;20.17;;;14.25;;
44270;SDS011;29963;44.594;11.368;2022-10-14T07:14:24;21.02;;;14.93;;
44270;SDS011;29963;44.594;11.368;2022-10-14T07:16:49;19.38;;;15.40;;
44270;SDS011;29963;44.594;11.368;2022-10-14T07:35:39;22.13;;;15.13;;
44270;SDS011;29963;44.594;11.368;2022-10-14T07:38:05;20.45;;;16.52;;
44270;SDS011;29963;44.594;11.368;2022-10-14T07:40:31;20.33;;;15.73;;
44270;SDS011;29963;44.594;11.368;2022-10-14T11:28:15;29.55;;;22.73;;
44270;SDS011;29963;44.594;11.368;2022-10-14T11:47:40;27.40;;;22.90;;
44270;SDS011;29963;44.594;11.368;2022-10-14T11:50:13;32.83;;;21.55;;
44270;SDS011;29963;44.594;11.368;2022-10-14T11:52:56;28.17;;;23.75;;
44270;SDS011;29963;44.594;11.368;2022-10-14T11:55:22;30.40;;;20.95;;
44270;SDS011;29963;44.594;11.368;2022-10-14T11:58:00;27.42;;;21.73;;
44270;SDS011;29963;44.594;11.368;2022-10-14T12:01:08;25.90;;;17.55;;
44270;SDS011;29963;44.594;11.368;2022-10-14T12:06:20;21.65;;;17.70;;
44270;SDS011;29963;44.594;11.368;2022-10-14T12:11:45;23.67;;;18.10;;
44270;SDS011;29963;44.594;11.368;2022-10-14T12:14:31;20.27;;;17.67;;
44270;SDS011;29963;44.594;11.368;2022-10-14T12:17:10;31.33;;;22.73;;
44270;SDS011;29963;44.594;11.368;2022-10-14T12:19:53;26.63;;;21.55;;
44270;SDS011;29963;44.594;11.368;2022-10-14T12:22:21;31.02;;;23.73;;
44270;SDS011;29963;44.594;11.368;2022-10-14T12:24:53;23.83;;;18.92;;
44270;SDS011;29963;44.594;11.368;2022-10-14T12:27:22;22.45;;;18.25;;
44270;SDS011;29963;44.594;11.368;2022-10-14T12:29:50;24.00;;;18.35;;
44270;SDS011;29963;44.594;11.368;2022-10-14T12:34:45;26.67;;;22.50;;
44270;SDS011;29963;44.594;11.368;2022-10-14T18:17:35;27.70;;;23.23;;
44270;SDS011;29963;44.594;11.368;2022-10-14T18:20:01;27.73;;;22.92;;
44270;SDS011;29963;44.594;11.368;2022-10-14T18:22:30;33.13;;;24.65;;
44270;SDS011;29963;44.594;11.368;2022-10-14T18:24:56;26.08;;;20.80;;
44270;SDS011;29963;44.594;11.368;2022-10-14T18:27:22;30.15;;;20.58;;
44270;SDS011;29963;44.594;11.368;2022-10-14T18:29:50;24.63;;;20.73;;
44270;SDS011;29963;44.594;11.368;2022-10-14T18:32:16;28.65;;;19.88;;
44270;SDS011;29963;44.594;11.368;2022-10-14T18:34:44;24.70;;;21.23;;
44270;SDS011;29963;44.594;11.368;2022-10-14T18:37:10;28.20;;;21.95;;
44270;SDS011;29963;44.594;11.368;2022-10-14T18:39:36;25.45;;;20.95;;
44270;SDS011;29963;44.594;11.368;2022-10-14T18:42:01;24.77;;;20.35;;
44270;SDS011;29963;44.594;11.368;2022-10-14T18:44:27;26.88;;;21.33;;
44270;SDS011;29963;44.594;11.368;2022-10-14T18:46:53;36.88;;;23.30;;
44270;SDS011;29963;44.594;11.368;2022-10-14T18:49:18;30.40;;;20.65;;
44270;SDS011;29963;44.594;11.368;2022-10-14T18:51:44;32.10;;;21.80;;
44270;SDS011;29963;44.594;11.368;2022-10-14T18:54:14;32.38;;;23.02;;
44270;SDS011;29963;44.594;11.368;2022-10-14T18:56:44;31.35;;;23.17;;
44270;SDS011;29963;44.594;11.368;2022-10-14T18:59:12;31.52;;;24.15;;
44270;SDS011;29963;44.594;11.368;2022-10-14T19:01:42;29.55;;;23.98;;
44270;SDS011;29963;44.594;11.368;2022-10-14T19:04:09;32.65;;;25.10;;
44270;SDS011;29963;44.594;11.368;2022-10-14T19:06:39;36.20;;;25.83;;
44270;SDS011;29963;44.594;11.368;2022-10-14T19:09:11;29.77;;;24.58;;
44270;SDS011;29963;44.594;11.368;2022-10-14T19:11:37;30.52;;;24.80;;
44270;SDS011;29963;44.594;11.368;2022-10-14T19:14:03;30.52;;;22.35;;
44270;SDS011;29963;44.594;11.368;2022-10-14T19:16:30;33.75;;;25.38;;
44270;SDS011;29963;44.594;11.368;2022-10-14T19:18:59;30.10;;;23.60;;
44270;SDS011;29963;44.594;11.368;2022-10-14T19:21:27;41.70;;;25.48;;
44270;SDS011;29963;44.594;11.368;2022-10-14T19:23:55;37.85;;;26.13;;
44270;SDS011;29963;44.594;11.368;2022-10-14T19:26:22;32.08;;;24.20;;
44270;SDS011;29963;44.594;11.368;2022-10-14T19:28:49;31.63;;;24.83;;
44270;SDS011;29963;44.594;11.368;2022-10-14T19:31:20;35.92;;;25.38;;
44270;SDS011;29963;44.594;11.368;2022-10-14T19:33:49;33.97;;;23.83;;
44270;SDS011;29963;44.594;11.368;2022-10-14T19:36:17;32.33;;;26.33;;
44270;SDS011;29963;44.594;11.368;2022-10-14T19:38:44;28.15;;;23.65;;
44270;SDS011;29963;44.594;11.368;2022-10-14T19:41:11;37.40;;;25.83;;
44270;SDS011;29963;44.594;11.368;2022-10-14T19:43:40;30.55;;;24.05;;
44270;SDS011;29963;44.594;11.368;2022-10-14T19:46:07;34.78;;;27.08;;
44270;SDS011;29963;44.594;11.368;2022-10-14T19:48:34;30.88;;;24.52;;
44270;SDS011;29963;44.594;11.368;2022-10-14T19:51:00;33.83;;;27.05;;
44270;SDS011;29963;44.594;11.368;2022-10-14T19:53:27;37.85;;;27.02;;
44270;SDS011;29963;44.594;11.368;2022-10-14T19:55:53;33.83;;;28.42;;
44270;SDS011;29963;44.594;11.368;2022-10-14T19:58:30;32.70;;;25.95;;
44270;SDS011;29963;44.594;11.368;2022-10-14T20:00:55;39.85;;;29.30;;
44270;SDS011;29963;44.594;11.368;2022-10-14T20:03:21;38.10;;;29.08;;
44270;SDS011;29963;44.594;11.368;2022-10-14T20:05:47;34.33;;;28.88;;
44270;SDS011;29963;44.594;11.368;2022-10-14T20:08:22;35.17;;;29.73;;
44270;SDS011;29963;44.594;11.368;2022-10-14T20:10:48;30.50;;;25.33;;
44270;SDS011;29963;44.594;11.368;2022-10-14T20:13:14;38.92;;;29.92;;
44270;SDS011;29963;44.594;11.368;2022-10-14T20:15:39;33.88;;;28.27;;
44270;SDS011;29963;44.594;11.368;2022-10-14T20:18:05;34.63;;;27.23;;
44270;SDS011;29963;44.594;11.368;2022-10-14T20:20:31;37.50;;;28.17;;
44270;SDS011;29963;44.594;11.368;2022-10-14T20:22:57;40.30;;;29.92;;
44270;SDS011;29963;44.594;11.368;2022-10-14T20:25:22;41.40;;;27.83;;
44270;SDS011;29963;44.594;11.368;2022-10-14T20:27:48;33.13;;;26.27;;
44270;SDS011;29963;44.594;11.368;2022-10-14T20:30:14;37.92;;;29.50;;
44270;SDS011;29963;44.594;11.368;2022-10-14T20:32:40;41.03;;;29.30;;
44270;SDS011;29963;44.594;11.368;2022-10-14T20:35:06;38.35;;;28.50;;
44270;SDS011;29963;44.594;11.368;2022-10-14T20:37:32;38.97;;;28.88;;
44270;SDS011;29963;44.594;11.368;2022-10-14T20:39:57;34.17;;;26.25;;
44270;SDS011;29963;44.594;11.368;2022-10-14T20:42:23;32.58;;;28.10;;
44270;SDS011;29963;44.594;11.368;2022-10-14T20:44:49;34.47;;;25.63;;
44270;SDS011;29963;44.594;11.368;2022-10-14T20:47:15;43.97;;;27.90;;
44270;SDS011;29963;44.594;11.368;2022-10-14T20:49:40;37.63;;;26.88;;
44270;SDS011;29963;44.594;11.368;2022-10-14T20:52:07;35.38;;;26.25;;
44270;SDS011;29963;44.594;11.368;2022-10-14T20:54:34;36.88;;;28.63;;
44270;SDS011;29963;44.594;11.368;2022-10-14T20:57:00;37.30;;;27.48;;
44270;SDS011;29963;44.594;11.368;2022-10-14T20:59:26;33.55;;;27.13;;
44270;SDS011;29963;44.594;11.368;2022-10-14T21:01:52;37.08;;;27.00;;
44270;SDS011;29963;44.594;11.368;2022-10-14T21:04:20;31.10;;;26.33;;
44270;SDS011;29963;44.594;11.368;2022-10-14T21:06:46;33.35;;;28.70;;
44270;SDS011;29963;44.594;11.368;2022-10-14T21:09:11;34.92;;;29.75;;
44270;SDS011;29963;44.594;11.368;2022-10-14T21:11:37;44.85;;;30.98;;
44270;SDS011;29963;44.594;11.368;2022-10-14T21:14:03;37.30;;;27.05;;
44270;SDS011;29963;44.594;11.368;2022-10-14T21:16:30;33.38;;;26.15;;
44270;SDS011;29963;44.594;11.368;2022-10-14T21:18:59;35.90;;;26.73;;
44270;SDS011;29963;44.594;11.368;2022-10-14T21:21:32;41.58;;;28.60;;
44270;SDS011;29963;44.594;11.368;2022-10-14T21:24:04;34.72;;;27.85;;
44270;SDS011;29963;44.594;11.368;2022-10-14T21:26:30;34.50;;;27.15;;
44270;SDS011;29963;44.594;11.368;2022-10-14T21:28:55;39.60;;;27.70;;
44270;SDS011;29963;44.594;11.368;2022-10-14T21:31:21;42.88;;;28.40;;
44270;SDS011;29963;44.594;11.368;2022-10-14T21:33:47;34.08;;;26.40;;
44270;SDS011;29963;44.594;11.368;2022-10-14T21:36:18;35.45;;;27.58;;
44270;SDS011;29963;44.594;11.368;2022-10-14T21:38:44;42.13;;;29.90;;
44270;SDS011;29963;44.594;11.368;2022-10-14T21:41:10;32.75;;;27.02;;
44270;SDS011;29963;44.594;11.368;2022-10-14T21:43:36;38.83;;;27.33;;
44270;SDS011;29963;44.594;11.368;2022-10-14T21:46:10;31.48;;;26.85;;
44270;SDS011;29963;44.594;11.368;2022-10-14T21:48:37;37.53;;;29.83;;
44270;SDS011;29963;44.594;11.368;2022-10-14T21:53:37;41.03;;;27.23;;
44270;SDS011;29963;44.594;11.368;2022-10-14T21:56:04;37.70;;;28.70;;
44270;SDS011;29963;44.594;11.368;2022-10-14T21:58:30;36.42;;;27.88;;
44270;SDS011;29963;44.594;11.368;2022-10-14T22:01:00;34.85;;;29.02;;
44270;SDS011;29963;44.594;11.368;2022-10-14T22:03:26;38.17;;;27.80;;
44270;SDS011;29963;44.594;11.368;2022-10-14T22:06:02;38.67;;;28.48;;
44270;SDS011;29963;44.594;11.368;2022-10-14T22:08:30;38.33;;;27.67;;
44270;SDS011;29963;44.594;11.368;2022-10-14T22:10:58;32.13;;;25.38;;
44270;SDS011;29963;44.594;11.368;2022-10-14T22:13:24;25.90;;;23.13;;
44270;SDS011;29963;44.594;11.368;2022-10-14T22:15:50;28.33;;;24.55;;
44270;SDS011;29963;44.594;11.368;2022-10-14T22:18:16;28.40;;;21.55;;
44270;SDS011;29963;44.594;11.368;2022-10-14T22:20:42;25.27;;;21.70;;
44270;SDS011;29963;44.594;11.368;2022-10-14T22:23:07;26.15;;;21.40;;
44270;SDS011;29963;44.594;11.368;2022-10-14T22:25:33;27.92;;;21.73;;
44270;SDS011;29963;44.594;11.368;2022-10-14T22:28:00;25.95;;;20.05;;
44270;SDS011;29963;44.594;11.368;2022-10-14T22:30:26;26.70;;;19.90;;
44270;SDS011;29963;44.594;11.368;2022-10-14T22:32:52;26.60;;;19.10;;
44270;SDS011;29963;44.594;11.368;2022-10-14T22:35:18;23.63;;;19.75;;
44270;SDS011;29963;44.594;11.368;2022-10-14T22:37:45;21.98;;;18.98;;
44270;SDS011;29963;44.594;11.368;2022-10-14T22:40:10;26.50;;;18.85;;
44270;SDS011;29963;44.594;11.368;2022-10-14T22:42:36;23.90;;;17.30;;
44270;SDS011;29963;44.594;11.368;2022-10-14T22:45:02;25.95;;;19.48;;
44270;SDS011;29963;44.594;11.368;2022-10-14T22:47:28;21.20;;;18.80;;
44270;SDS011;29963;44.594;11.368;2022-10-14T22:49:53;20.33;;;17.50;;
44270;SDS011;29963;44.594;11.368;2022-10-14T22:52:19;23.35;;;17.92;;
44270;SDS011;29963;44.594;11.368;2022-10-14T22:54:45;20.63;;;17.35;;
44270;SDS011;29963;44.594;11.368;2022-10-14T22:57:11;20.52;;;18.10;;
44270;SDS011;29963;44.594;11.368;2022-10-14T22:59:37;21.10;;;17.02;;
44270;SDS011;29963;44.594;11.368;2022-10-14T23:02:03;22.75;;;19.00;;
44270;SDS011;29963;44.594;11.368;2022-10-14T23:04:29;19.95;;;17.83;;
44270;SDS011;29963;44.594;11.368;2022-10-14T23:06:54;22.08;;;17.40;;
44270;SDS011;29963;44.594;11.368;2022-10-14T23:09:22;23.92;;;17.50;;
44270;SDS011;29963;44.594;11.368;2022-10-14T23:11:47;18.63;;;16.00;;
44270;SDS011;29963;44.594;11.368;2022-10-14T23:14:13;26.25;;;17.10;;
44270;SDS011;29963;44.594;11.368;2022-10-14T23:16:39;21.17;;;17.55;;
44270;SDS011;29963;44.594;11.368;2022-10-14T23:19:04;20.63;;;16.73;;
44270;SDS011;29963;44.594;11.368;2022-10-14T23:21:31;23.63;;;16.17;;
44270;SDS011;29963;44.594;11.368;2022-10-14T23:23:59;18.42;;;16.27;;
44270;SDS011;29963;44.594;11.368;2022-10-14T23:26:27;19.15;;;16.85;;
44270;SDS011;29963;44.594;11.368;2022-10-14T23:28:58;19.80;;;16.88;;
44270;SDS011;29963;44.594;11.368;2022-10-14T23:31:26;23.15;;;16.80;;
44270;SDS011;29963;44.594;11.368;2022-10-14T23:33:53;19.40;;;16.88;;
44270;SDS011;29963;44.594;11.368;2022-10-14T23:36:21;18.77;;;16.65;;
44270;SDS011;29963;44.594;11.368;2022-10-14T23:38:47;21.25;;;16.90;;
44270;SDS011;29963;44.594;11.368;2022-10-14T23:41:13;23.90;;;18.70;;
44270;SDS011;29963;44.594;11.368;2022-10-14T23:43:39;18.27;;;16.30;;
44270;SDS011;29963;44.594;11.368;2022-10-14T23:46:06;21.13;;;17.83;;
44270;SDS011;29963;44.594;11.368;2022-10-14T23:48:33;21.98;;;17.10;;
44270;SDS011;29963;44.594;11.368;2022-10-14T23:50:59;25.25;;;17.90;;
44270;SDS011;29963;44.594;11.368;2022-10-14T23:53:24;21.38;;;17.63;;
44270;SDS011;29963;44.594;11.368;2022-10-14T23:55:51;19.17;;;17.17;;
44270;SDS011;29963;44.594;11.368;2022-10-14T23:58:17;25.08;;;18.33;;
